createdAt,value
2023-04-26T00:00:09.532Z,95173.27
2023-04-26T00:03:00.412Z,95172.83
2023-04-26T00:05:29.793Z,95171.66
2023-04-26T00:07:58.642Z,95168.75
2023-04-26T00:10:27.253Z,95171.98
2023-04-26T00:12:55.600Z,95175.77
2023-04-26T00:15:23.963Z,95176.80
2023-04-26T00:17:52.388Z,95176.38
2023-04-26T00:20:20.740Z,95174.71
2023-04-26T00:22:49.068Z,95179.89
2023-04-26T00:25:17.643Z,95178.49
2023-04-26T00:27:45.974Z,95177.80
2023-04-26T00:30:14.839Z,95178.65
2023-04-26T00:32:43.154Z,95180.70
2023-04-26T00:35:11.733Z,95185.79
2023-04-26T00:37:40.026Z,95190.07
2023-04-26T00:40:09.289Z,95195.65
2023-04-26T00:42:39.636Z,95195.11
2023-04-26T00:45:08.532Z,95196.80
2023-04-26T00:47:37.240Z,95193.73
2023-04-26T00:50:07.396Z,95193.73
2023-04-26T00:52:35.819Z,95195.08
2023-04-26T00:55:04.298Z,95191.03
2023-04-26T00:57:32.589Z,95195.98
2023-04-26T01:00:00.979Z,95196.17
2023-04-26T01:02:29.381Z,95198.99
2023-04-26T01:04:57.883Z,95197.02
2023-04-26T01:07:26.426Z,95201.67
2023-04-26T01:09:56.873Z,95203.14
2023-04-26T01:12:26.848Z,95204.69
2023-04-26T01:14:55.902Z,95204.61
2023-04-26T01:17:24.874Z,95209.58
2023-04-26T01:19:53.331Z,95203.48
2023-04-26T01:22:22.026Z,95209.05
2023-04-26T01:24:52.540Z,95210.52
2023-04-26T01:27:20.862Z,95211.58
2023-04-26T01:29:49.263Z,95217.10
2023-04-26T01:32:17.703Z,95213.58
2023-04-26T01:34:46.688Z,95218.27
2023-04-26T01:37:15.069Z,95223.77
2023-04-26T01:39:43.404Z,95230.22
2023-04-26T01:42:11.822Z,95228.64
2023-04-26T01:44:40.139Z,95231.79
2023-04-26T01:47:08.678Z,95228.70
2023-04-26T01:49:37.128Z,95227.41
2023-04-26T01:52:05.752Z,95232.31
2023-04-26T01:54:34.179Z,95232.42
2023-04-26T01:57:02.850Z,95234.30
2023-04-26T01:59:31.375Z,95229.94
2023-04-26T02:02:00.471Z,95237.11
2023-04-26T02:04:29.644Z,95241.96
2023-04-26T02:06:58.019Z,95246.09
2023-04-26T02:09:26.345Z,95244.41
2023-04-26T02:11:54.737Z,95246.73
2023-04-26T02:14:27.344Z,95243.27
2023-04-26T02:16:55.631Z,95242.64
2023-04-26T02:19:24.204Z,95238.92
2023-04-26T02:21:56.294Z,95241.78
2023-04-26T02:24:25.493Z,95242.89
2023-04-26T02:26:54.738Z,95243.27
2023-04-26T02:29:36.226Z,95247.92
2023-04-26T02:32:08.843Z,95246.90
2023-04-26T02:34:37.152Z,95243.02
2023-04-26T02:37:05.821Z,95245.45
2023-04-26T02:39:34.222Z,95245.24
2023-04-26T02:42:02.643Z,95240.95
2023-04-26T02:44:31.321Z,95248.02
2023-04-26T02:46:59.851Z,95244.52
2023-04-26T02:49:29.312Z,95244.08
2023-04-26T02:51:57.646Z,95244.46
2023-04-26T02:54:26.294Z,95244.05
2023-04-26T02:56:55.490Z,95241.30
2023-04-26T02:59:23.852Z,95243.49
2023-04-26T03:01:52.264Z,95246.82
2023-04-26T03:04:20.859Z,95250.56
2023-04-26T03:06:49.160Z,95247.11
2023-04-26T03:09:17.962Z,95252.65
2023-04-26T03:11:48.906Z,95253.73
2023-04-26T03:14:18.482Z,95254.06
2023-04-26T03:16:48.599Z,95257.56
2023-04-26T03:19:17.165Z,95257.17
2023-04-26T03:21:45.808Z,95261.02
2023-04-26T03:24:14.295Z,95259.79
2023-04-26T03:26:42.623Z,95264.63
2023-04-26T03:29:12.556Z,95270.61
2023-04-26T03:31:41.117Z,95271.54
2023-04-26T03:34:09.706Z,95271.55
2023-04-26T03:36:38.594Z,95274.00
2023-04-26T03:39:07.562Z,95279.02
2023-04-26T03:41:39.597Z,95281.02
2023-04-26T03:44:08.545Z,95285.95
2023-04-26T03:46:36.977Z,95297.13
2023-04-26T03:49:05.459Z,95299.73
2023-04-26T03:51:33.996Z,95302.40
2023-04-26T03:54:02.351Z,95304.41
2023-04-26T03:56:30.694Z,95313.36
2023-04-26T03:58:59.035Z,95313.42
2023-04-26T04:01:27.826Z,95313.70
2023-04-26T04:03:56.777Z,95315.55
2023-04-26T04:06:25.453Z,95317.49
2023-04-26T04:08:54.091Z,95320.91
2023-04-26T04:11:23.778Z,95318.19
2023-04-26T04:13:52.514Z,95316.21
2023-04-26T04:16:20.945Z,95320.05
2023-04-26T04:18:49.508Z,95326.75
2023-04-26T04:21:17.898Z,95325.21
2023-04-26T04:23:46.797Z,95326.05
2023-04-26T04:26:15.151Z,95332.45
2023-04-26T04:28:45.228Z,95334.83
2023-04-26T04:31:14.479Z,95339.83
2023-04-26T04:33:43.477Z,95338.64
2023-04-26T04:36:11.880Z,95344.00
2023-04-26T04:38:40.319Z,95343.52
2023-04-26T04:41:10.399Z,95344.54
2023-04-26T04:43:38.921Z,95348.18
2023-04-26T04:46:08.466Z,95350.80
2023-04-26T04:48:38.875Z,95350.45
2023-04-26T04:51:08.170Z,95351.95
2023-04-26T04:53:38.305Z,95356.77
2023-04-26T04:56:07.897Z,95356.71
2023-04-26T04:58:36.280Z,95354.19
2023-04-26T05:01:04.732Z,95358.42
2023-04-26T05:03:44.953Z,95363.60
2023-04-26T05:06:13.370Z,95360.56
2023-04-26T05:08:42.272Z,95363.30
2023-04-26T05:11:11.230Z,95357.96
2023-04-26T05:13:39.624Z,95359.45
2023-04-26T05:16:08.186Z,95367.95
2023-04-26T05:18:36.983Z,95371.58
2023-04-26T05:21:05.841Z,95369.48
2023-04-26T05:23:34.673Z,95378.69
2023-04-26T05:26:07.706Z,95377.54
2023-04-26T05:28:56.352Z,95379.89
2023-04-26T05:31:45.164Z,95384.59
2023-04-26T05:34:37.514Z,95385.06
2023-04-26T05:37:05.810Z,95388.61
2023-04-26T05:39:34.304Z,95387.21
2023-04-26T05:42:03.680Z,95385.58
2023-04-26T05:44:32.982Z,95390.02
2023-04-26T05:47:01.438Z,95393.23
2023-04-26T05:49:29.800Z,95396.41
2023-04-26T05:52:01.368Z,95396.28
2023-04-26T05:54:29.978Z,95405.65
2023-04-26T05:56:59.300Z,95407.44
2023-04-26T05:59:32.990Z,95411.77
2023-04-26T06:02:01.797Z,95419.09
2023-04-26T06:04:30.481Z,95412.70
2023-04-26T06:07:11.528Z,95422.67
2023-04-26T06:09:40.719Z,95423.93
2023-04-26T06:12:09.101Z,95422.04
2023-04-26T06:14:40.234Z,95429.58
2023-04-26T06:17:12.119Z,95428.95
2023-04-26T06:19:40.472Z,95440.89
2023-04-26T06:22:08.770Z,95445.09
2023-04-26T06:24:37.081Z,95445.57
2023-04-26T06:27:05.522Z,95449.45
2023-04-26T06:29:34.134Z,95452.61
2023-04-26T06:32:02.553Z,95455.05
2023-04-26T06:34:31.770Z,95453.70
2023-04-26T06:37:00.522Z,95453.44
2023-04-26T06:39:28.982Z,95455.71
2023-04-26T06:41:57.333Z,95461.73
2023-04-26T06:44:48.477Z,95463.08
2023-04-26T06:47:18.293Z,95469.35
2023-04-26T06:49:46.646Z,95474.37
2023-04-26T06:52:15.015Z,95470.14
2023-04-26T06:54:55.925Z,95479.41
2023-04-26T06:57:26.203Z,95473.42
2023-04-26T06:59:54.579Z,95483.05
2023-04-26T07:02:24.584Z,95481.20
2023-04-26T07:04:53.789Z,95478.62
2023-04-26T07:07:22.299Z,95493.43
2023-04-26T07:09:50.601Z,95491.92
2023-04-26T07:12:18.916Z,95496.23
2023-04-26T07:14:47.516Z,95500.82
2023-04-26T07:17:15.934Z,95509.17
2023-04-26T07:19:44.296Z,95510.73
2023-04-26T07:22:12.573Z,95514.29
2023-04-26T07:24:40.818Z,95517.08
2023-04-26T07:27:09.077Z,95519.77
2023-04-26T07:29:37.440Z,95522.43
2023-04-26T07:32:06.879Z,95525.91
2023-04-26T07:34:35.185Z,95524.26
2023-04-26T07:37:03.534Z,95534.27
2023-04-26T07:39:34.492Z,95537.31
2023-04-26T07:42:03.177Z,95532.95
2023-04-26T07:44:31.454Z,95544.30
2023-04-26T07:46:59.734Z,95545.13
2023-04-26T07:49:27.983Z,95550.55
2023-04-26T07:51:58.325Z,95550.16
2023-04-26T07:54:27.027Z,95554.91
2023-04-26T07:56:55.592Z,95556.82
2023-04-26T07:59:24.280Z,95558.02
2023-04-26T08:01:52.884Z,95564.68
2023-04-26T08:04:33.017Z,95563.25
2023-04-26T08:07:04.269Z,95571.94
2023-04-26T08:09:32.906Z,95572.66
2023-04-26T08:12:01.500Z,95582.75
2023-04-26T08:14:31.075Z,95585.21
2023-04-26T08:16:59.464Z,95582.38
2023-04-26T08:19:32.759Z,95593.95
2023-04-26T08:22:01.190Z,95596.52
2023-04-26T08:24:29.574Z,95598.00
2023-04-26T08:26:59.136Z,95603.67
2023-04-26T08:29:28.069Z,95605.27
2023-04-26T08:31:56.709Z,95611.27
2023-04-26T08:34:25.097Z,95603.54
2023-04-26T08:36:53.374Z,95609.21
2023-04-26T08:39:21.668Z,95613.98
2023-04-26T08:41:55.036Z,95611.83
2023-04-26T08:44:25.383Z,95618.59
2023-04-26T08:47:15.272Z,95615.73
2023-04-26T08:49:53.706Z,95621.90
2023-04-26T08:52:23.573Z,95610.50
2023-04-26T08:54:53.674Z,95616.39
2023-04-26T08:57:22.764Z,95616.85
2023-04-26T08:59:53.035Z,95624.27
2023-04-26T09:02:23.295Z,95621.55
2023-04-26T09:04:52.426Z,95625.36
2023-04-26T09:07:40.878Z,95627.00
2023-04-26T09:10:10.224Z,95632.87
2023-04-26T09:12:39.201Z,95631.82
2023-04-26T09:15:08.191Z,95635.02
2023-04-26T09:17:39.233Z,95632.15
2023-04-26T09:20:26.658Z,95639.15
2023-04-26T09:23:09.494Z,95637.34
2023-04-26T09:25:38.296Z,95637.91
2023-04-26T09:28:21.395Z,95639.90
2023-04-26T09:30:49.971Z,95645.25
2023-04-26T09:33:19.712Z,95647.77
2023-04-26T09:35:48.112Z,95645.23
2023-04-26T09:38:18.337Z,95653.05
2023-04-26T09:40:48.613Z,95649.48
2023-04-26T09:43:22.036Z,95651.75
2023-04-26T09:45:51.558Z,95653.16
2023-04-26T09:48:23.028Z,95655.40
2023-04-26T09:50:53.648Z,95654.88
2023-04-26T09:53:42.498Z,95657.52
2023-04-26T09:56:15.848Z,95651.86
2023-04-26T09:58:44.135Z,95658.66
2023-04-26T10:01:15.372Z,95656.94
2023-04-26T10:03:45.048Z,95657.21
2023-04-26T10:06:13.773Z,95654.37
2023-04-26T10:08:42.657Z,95656.89
2023-04-26T10:11:11.888Z,95654.79
2023-04-26T10:13:41.984Z,95662.91
2023-04-26T10:16:10.717Z,95660.79
2023-04-26T10:18:39.283Z,95663.79
2023-04-26T10:21:13.031Z,95653.89
2023-04-26T10:23:41.878Z,95658.04
2023-04-26T10:26:57.736Z,95664.08
2023-04-26T10:29:28.106Z,95666.67
2023-04-26T10:32:02.333Z,95670.50
2023-04-26T10:34:32.547Z,95671.16
2023-04-26T10:37:17.823Z,95665.34
2023-04-26T10:39:47.395Z,95666.98
2023-04-26T10:42:25.137Z,95668.58
2023-04-26T10:44:56.200Z,95670.26
2023-04-26T10:47:31.570Z,95667.88
2023-04-26T10:50:12.232Z,95667.01
2023-04-26T10:53:03.870Z,95671.05
2023-04-26T10:55:42.613Z,95676.13
2023-04-26T10:58:29.966Z,95674.05
2023-04-26T11:01:08.543Z,95679.89
2023-04-26T11:03:38.007Z,95678.61
2023-04-26T11:06:09.629Z,95684.05
2023-04-26T11:08:38.107Z,95685.77
2023-04-26T11:11:12.212Z,95683.94
2023-04-26T11:13:44.464Z,95682.91
2023-04-26T11:16:14.653Z,95682.41
2023-04-26T11:18:45.219Z,95685.61
2023-04-26T11:21:18.140Z,95682.44
2023-04-26T11:23:56.183Z,95686.06
2023-04-26T11:26:32.696Z,95687.92
2023-04-26T11:29:01.501Z,95689.10
2023-04-26T11:31:31.107Z,95687.27
2023-04-26T11:34:05.634Z,95686.66
2023-04-26T11:36:37.183Z,95688.44
2023-04-26T11:39:05.883Z,95690.51
2023-04-26T11:41:34.142Z,95689.75
2023-04-26T11:44:02.527Z,95693.52
2023-04-26T11:46:31.258Z,95689.60
2023-04-26T11:49:00.115Z,95690.70
2023-04-26T11:51:31.186Z,95692.23
2023-04-26T11:54:01.731Z,95695.48
2023-04-26T11:56:31.108Z,95692.13
2023-04-26T11:59:00.096Z,95689.81
2023-04-26T12:01:29.963Z,95695.33
2023-04-26T12:04:00.060Z,95692.79
2023-04-26T12:06:41.839Z,95694.20
2023-04-26T12:09:11.490Z,95695.66
2023-04-26T12:11:40.695Z,95696.50
2023-04-26T12:14:10.333Z,95693.85
2023-04-26T12:16:39.126Z,95690.95
2023-04-26T12:19:08.916Z,95693.08
2023-04-26T12:21:44.106Z,95690.27
2023-04-26T12:24:26.002Z,95698.41
2023-04-26T12:26:54.456Z,95695.09
2023-04-26T12:29:22.852Z,95695.81
2023-04-26T12:31:51.403Z,95688.73
2023-04-26T12:34:19.979Z,95688.13
2023-04-26T12:36:48.365Z,95687.67
2023-04-26T12:39:16.962Z,95689.72
2023-04-26T12:41:46.622Z,95686.29
2023-04-26T12:44:14.993Z,95689.34
2023-04-26T12:46:43.794Z,95689.40
2023-04-26T12:49:12.465Z,95689.33
2023-04-26T12:51:40.885Z,95697.53
2023-04-26T12:54:09.401Z,95695.70
2023-04-26T12:56:43.907Z,95696.81
2023-04-26T12:59:12.431Z,95692.54
2023-04-26T13:01:41.378Z,95691.25
2023-04-26T13:04:10.278Z,95688.73
2023-04-26T13:06:38.769Z,95692.27
2023-04-26T13:09:08.292Z,95693.67
2023-04-26T13:11:36.591Z,95695.02
2023-04-26T13:14:06.947Z,95697.31
2023-04-26T13:16:35.611Z,95702.27
2023-04-26T13:19:04.121Z,95703.68
2023-04-26T13:21:32.848Z,95708.45
2023-04-26T13:24:01.355Z,95704.86
2023-04-26T13:26:29.693Z,95706.14
2023-04-26T13:28:58.029Z,95703.23
2023-04-26T13:31:26.972Z,95712.38
2023-04-26T13:33:55.330Z,95712.72
2023-04-26T13:36:23.655Z,95721.05
2023-04-26T13:38:52.057Z,95724.95
2023-04-26T13:41:20.434Z,95729.80
2023-04-26T13:43:48.832Z,95729.38
2023-04-26T13:46:17.233Z,95735.77
2023-04-26T13:48:45.615Z,95738.46
2023-04-26T13:51:14.051Z,95741.71
2023-04-26T13:53:42.414Z,95737.18
2023-04-26T13:56:10.905Z,95739.88
2023-04-26T13:58:42.410Z,95737.58
2023-04-26T14:01:10.862Z,95736.52
2023-04-26T14:03:39.311Z,95739.27
2023-04-26T14:06:07.976Z,95742.58
2023-04-26T14:08:36.379Z,95743.85
2023-04-26T14:11:05.082Z,95742.85
2023-04-26T14:13:33.758Z,95748.66
2023-04-26T14:16:02.242Z,95750.77
2023-04-26T14:18:30.608Z,95750.78
2023-04-26T14:20:58.954Z,95751.71
2023-04-26T14:23:27.272Z,95748.52
2023-04-26T14:25:55.794Z,95755.86
2023-04-26T14:28:24.199Z,95760.09
2023-04-26T14:30:52.486Z,95759.15
2023-04-26T14:33:22.058Z,95761.48
2023-04-26T14:35:51.353Z,95761.14
2023-04-26T14:38:19.697Z,95768.52
2023-04-26T14:40:48.249Z,95774.09
2023-04-26T14:43:16.675Z,95770.70
2023-04-26T14:45:45.324Z,95776.59
2023-04-26T14:48:13.785Z,95781.33
2023-04-26T14:50:42.449Z,95780.77
2023-04-26T14:53:11.220Z,95784.24
2023-04-26T14:55:39.600Z,95786.33
2023-04-26T14:58:08.032Z,95786.46
2023-04-26T15:00:36.368Z,95782.55
2023-04-26T15:03:04.911Z,95787.34
2023-04-26T15:05:33.380Z,95791.27
2023-04-26T15:08:01.727Z,95793.44
2023-04-26T15:10:30.063Z,95793.34
2023-04-26T15:12:58.444Z,95799.73
2023-04-26T15:15:26.738Z,95802.19
2023-04-26T15:17:55.489Z,95805.48
2023-04-26T15:20:24.536Z,95808.36
2023-04-26T15:22:52.868Z,95811.63
2023-04-26T15:25:21.238Z,95809.50
2023-04-26T15:27:50.483Z,95812.18
2023-04-26T15:30:18.867Z,95817.09
2023-04-26T15:32:49.544Z,95816.09
2023-04-26T15:35:18.038Z,95816.85
2023-04-26T15:37:46.457Z,95816.95
2023-04-26T15:40:14.785Z,95815.26
2023-04-26T15:42:43.211Z,95818.58
2023-04-26T15:45:11.721Z,95817.09
2023-04-26T15:47:40.066Z,95815.80
2023-04-26T15:50:09.303Z,95815.52
2023-04-26T15:52:39.448Z,95820.92
2023-04-26T15:55:08.302Z,95820.70
2023-04-26T15:57:36.956Z,95820.77
2023-04-26T16:00:08.583Z,95824.94
2023-04-26T16:02:36.975Z,95827.02
2023-04-26T16:05:07.377Z,95830.19
2023-04-26T16:07:35.938Z,95831.30
2023-04-26T16:10:05.938Z,95831.80
2023-04-26T16:12:34.374Z,95834.61
2023-04-26T16:15:02.981Z,95832.84
2023-04-26T16:17:31.330Z,95835.23
2023-04-26T16:20:00.771Z,95840.90
2023-04-26T16:22:29.119Z,95844.50
2023-04-26T16:24:59.105Z,95845.20
2023-04-26T16:27:27.679Z,95853.25
2023-04-26T16:29:57.020Z,95854.68
2023-04-26T16:32:26.579Z,95854.31
2023-04-26T16:34:54.920Z,95854.80
2023-04-26T16:37:23.263Z,95861.59
2023-04-26T16:39:55.915Z,95864.90
2023-04-26T16:42:24.250Z,95868.78
2023-04-26T16:44:54.939Z,95867.75
2023-04-26T16:47:23.073Z,95871.92
2023-04-26T16:49:51.611Z,95875.55
2023-04-26T16:52:19.875Z,95875.73
2023-04-26T16:54:48.166Z,95882.15
2023-04-26T16:57:16.745Z,95880.97
2023-04-26T16:59:45.180Z,95884.78
2023-04-26T17:02:14.154Z,95891.80
2023-04-26T17:04:42.779Z,95891.74
2023-04-26T17:07:12.899Z,95893.56
2023-04-26T17:09:41.234Z,95897.66
2023-04-26T17:12:09.626Z,95902.73
2023-04-26T17:14:37.991Z,95907.10
2023-04-26T17:17:06.500Z,95910.63
2023-04-26T17:19:34.768Z,95912.87
2023-04-26T17:22:03.106Z,95918.84
2023-04-26T17:24:31.358Z,95923.15
2023-04-26T17:26:59.763Z,95928.35
2023-04-26T17:29:28.267Z,95930.05
2023-04-26T17:31:56.720Z,95932.88
2023-04-26T17:34:25.044Z,95935.70
2023-04-26T17:36:53.342Z,95938.63
2023-04-26T17:39:21.611Z,95947.32
2023-04-26T17:41:51.487Z,95951.30
2023-04-26T17:44:19.900Z,95956.25
2023-04-26T17:46:48.212Z,95959.13
2023-04-26T17:49:16.600Z,95959.45
2023-04-26T17:51:44.885Z,95961.73
2023-04-26T17:54:14.242Z,95961.00
2023-04-26T17:56:43.596Z,95962.45
2023-04-26T17:59:12.154Z,95967.23
2023-04-26T18:01:40.549Z,95966.98
2023-04-26T18:04:09.173Z,95968.46
2023-04-26T18:06:38.187Z,95971.16
2023-04-26T18:09:07.261Z,95972.90
2023-04-26T18:11:35.719Z,95972.31
2023-04-26T18:14:03.977Z,95974.76
2023-04-26T18:16:32.379Z,95975.84
2023-04-26T18:19:00.768Z,95973.11
2023-04-26T18:21:29.103Z,95978.73
2023-04-26T18:23:57.545Z,95983.60
2023-04-26T18:26:26.185Z,95986.13
2023-04-26T18:28:55.368Z,95991.01
2023-04-26T18:31:23.678Z,95995.98
2023-04-26T18:33:52.011Z,96000.19
2023-04-26T18:36:20.374Z,96005.73
2023-04-26T18:38:48.765Z,96002.73
2023-04-26T18:41:18.074Z,96003.84
2023-04-26T18:43:46.351Z,96006.76
2023-04-26T18:46:14.777Z,96010.25
2023-04-26T18:48:43.161Z,96013.89
2023-04-26T18:51:11.392Z,96016.30
2023-04-26T18:53:39.711Z,96013.77
2023-04-26T18:56:08.008Z,96016.41
2023-04-26T18:58:36.860Z,96016.62
2023-04-26T19:01:07.923Z,96023.44
2023-04-26T19:03:36.870Z,96022.42
2023-04-26T19:06:15.202Z,96021.85
2023-04-26T19:08:44.488Z,96023.83
2023-04-26T19:11:13.563Z,96028.40
2023-04-26T19:13:42.844Z,96031.55
2023-04-26T19:16:11.988Z,96035.73
2023-04-26T19:18:40.899Z,96037.69
2023-04-26T19:21:10.216Z,96043.27
2023-04-26T19:23:38.810Z,96043.42
2023-04-26T19:26:09.600Z,96043.43
2023-04-26T19:28:38.372Z,96043.42
2023-04-26T19:31:07.115Z,96040.15
2023-04-26T19:33:37.070Z,96041.67
2023-04-26T19:36:05.845Z,96039.89
2023-04-26T19:38:34.385Z,96035.73
2023-04-26T19:41:03.264Z,96034.38
2023-04-26T19:43:31.722Z,96034.05
2023-04-26T19:46:00.097Z,96035.39
2023-04-26T19:48:28.545Z,96033.77
2023-04-26T19:50:56.903Z,96038.48
2023-04-26T19:53:25.204Z,96041.83
2023-04-26T19:55:53.429Z,96042.16
2023-04-26T19:58:21.877Z,96042.97
2023-04-26T20:00:51.244Z,96049.09
2023-04-26T20:03:20.100Z,96050.02
2023-04-26T20:05:49.589Z,96049.34
2023-04-26T20:08:18.072Z,96053.40
2023-04-26T20:10:46.689Z,96056.52
2023-04-26T20:13:15.014Z,96056.19
2023-04-26T20:15:43.512Z,96053.96
2023-04-26T20:18:11.815Z,96056.45
2023-04-26T20:20:40.116Z,96054.09
2023-04-26T20:23:08.504Z,96059.23
2023-04-26T20:25:36.882Z,96059.95
2023-04-26T20:28:05.424Z,96058.73
2023-04-26T20:30:34.040Z,96059.05
2023-04-26T20:33:02.589Z,96062.52
2023-04-26T20:35:31.107Z,96060.30
2023-04-26T20:37:59.477Z,96058.63
2023-04-26T20:40:27.828Z,96059.95
2023-04-26T20:42:56.223Z,96062.79
2023-04-26T20:45:24.898Z,96065.06
2023-04-26T20:47:53.253Z,96064.54
2023-04-26T20:50:21.980Z,96065.33
2023-04-26T20:52:50.703Z,96072.21
2023-04-26T20:55:19.115Z,96075.95
2023-04-26T20:57:47.631Z,96077.52
2023-04-26T21:00:16.306Z,96079.27
2023-04-26T21:02:44.784Z,96085.98
2023-04-26T21:05:13.182Z,96088.60
2023-04-26T21:07:41.559Z,96090.60
2023-04-26T21:10:10.415Z,96090.11
2023-04-26T21:12:38.681Z,96088.93
2023-04-26T21:15:07.692Z,96088.77
2023-04-26T21:17:36.424Z,96089.40
2023-04-26T21:20:05.351Z,96090.94
2023-04-26T21:22:33.657Z,96097.55
2023-04-26T21:25:02.065Z,96099.88
2023-04-26T21:27:30.650Z,96099.58
2023-04-26T21:29:58.926Z,96102.12
2023-04-26T21:32:27.289Z,96103.58
2023-04-26T21:34:55.998Z,96101.91
2023-04-26T21:37:24.500Z,96103.55
2023-04-26T21:39:53.207Z,96102.16
2023-04-26T21:42:21.519Z,96105.74
2023-04-26T21:44:49.825Z,96109.70
2023-04-26T21:47:18.480Z,96108.77
2023-04-26T21:49:46.893Z,96105.63
2023-04-26T21:52:15.512Z,96108.50
2023-04-26T21:54:43.839Z,96108.40
2023-04-26T21:57:12.178Z,96109.20
2023-04-26T21:59:42.360Z,96109.30
2023-04-26T22:02:10.675Z,96115.02
2023-04-26T22:04:39.169Z,96116.40
2023-04-26T22:07:07.530Z,96122.39
2023-04-26T22:09:36.125Z,96125.35
2023-04-26T22:12:04.729Z,96128.85
2023-04-26T22:14:33.097Z,96129.19
2023-04-26T22:17:02.244Z,96130.98
2023-04-26T22:19:30.854Z,96129.08
2023-04-26T22:21:59.167Z,96131.05
2023-04-26T22:24:27.551Z,96129.41
2023-04-26T22:26:56.032Z,96127.77
2023-04-26T22:29:24.376Z,96125.99
2023-04-26T22:31:52.869Z,96129.13
2023-04-26T22:34:21.219Z,96131.32
2023-04-26T22:36:49.532Z,96131.33
2023-04-26T22:39:17.808Z,96129.10
2023-04-26T22:41:46.153Z,96129.55
2023-04-26T22:44:15.148Z,96128.95
2023-04-26T22:46:43.775Z,96128.30
2023-04-26T22:49:12.337Z,96130.05
2023-04-26T22:51:44.149Z,96129.78
2023-04-26T22:54:16.555Z,96130.75
2023-04-26T22:56:44.837Z,96130.38
2023-04-26T22:59:13.331Z,96128.58
2023-04-26T23:01:41.927Z,96122.55
2023-04-26T23:04:10.354Z,96124.48
2023-04-26T23:06:38.651Z,96125.04
2023-04-26T23:09:06.968Z,96121.86
2023-04-26T23:11:35.304Z,96124.91
2023-04-26T23:14:04.448Z,96126.10
2023-04-26T23:16:34.353Z,96125.39
2023-04-26T23:19:02.682Z,96125.01
2023-04-26T23:21:30.979Z,96127.20
2023-04-26T23:23:59.381Z,96130.23
2023-04-26T23:26:27.627Z,96128.98
2023-04-26T23:28:55.983Z,96130.45
2023-04-26T23:31:24.437Z,96129.67
2023-04-26T23:33:52.814Z,96130.11
2023-04-26T23:36:21.153Z,96127.91
2023-04-26T23:38:49.464Z,96125.42
2023-04-26T23:41:17.829Z,96128.25
2023-04-26T23:43:46.430Z,96126.09
2023-04-26T23:46:14.764Z,96127.08
2023-04-26T23:48:43.180Z,96127.94
2023-04-26T23:51:11.580Z,96126.80
2023-04-26T23:53:39.821Z,96127.98
2023-04-26T23:56:08.384Z,96129.67
2023-04-26T23:58:36.751Z,96131.86
